createdAt,value
2023-01-21T00:02:36.814Z,15.80
2023-01-21T00:05:24.442Z,16.00
2023-01-21T00:08:18.966Z,14.60
2023-01-21T00:11:07.686Z,14.30
2023-01-21T00:13:55.279Z,15.40
2023-01-21T00:16:42.778Z,15.20
2023-01-21T00:19:30.260Z,14.90
2023-01-21T00:22:17.853Z,15.20
2023-01-21T00:25:05.871Z,13.30
2023-01-21T00:27:53.369Z,15.20
2023-01-21T00:30:41.930Z,16.20
2023-01-21T00:33:29.846Z,14.80
2023-01-21T00:36:22.203Z,13.50
2023-01-21T00:39:09.806Z,13.80
2023-01-21T00:41:57.363Z,13.00
2023-01-21T00:44:44.837Z,12.40
2023-01-21T00:47:32.274Z,12.20
2023-01-21T00:50:19.858Z,11.30
2023-01-21T00:53:07.465Z,13.50
2023-01-21T00:55:59.146Z,13.20
2023-01-21T00:58:46.918Z,12.10
2023-01-21T01:01:37.938Z,13.00
2023-01-21T01:04:25.633Z,13.90
2023-01-21T01:07:13.175Z,11.40
2023-01-21T01:10:00.671Z,12.50
2023-01-21T01:12:48.120Z,12.30
2023-01-21T01:15:35.756Z,12.10
2023-01-21T01:18:24.099Z,11.40
2023-01-21T01:21:12.781Z,12.20
2023-01-21T01:24:03.450Z,11.30
2023-01-21T01:26:51.271Z,10.80
2023-01-21T01:29:38.825Z,12.30
2023-01-21T01:32:26.297Z,11.00
2023-01-21T01:35:13.870Z,11.90
2023-01-21T01:38:07.942Z,11.60
2023-01-21T01:40:55.543Z,10.80
2023-01-21T01:44:01.953Z,12.40
2023-01-21T01:46:49.459Z,11.30
2023-01-21T01:49:37.045Z,10.90
2023-01-21T01:52:24.551Z,11.00
2023-01-21T01:55:12.119Z,11.20
2023-01-21T01:57:59.567Z,11.90
2023-01-21T02:00:47.490Z,12.00
2023-01-21T02:03:49.521Z,11.00
2023-01-21T02:06:37.053Z,10.60
2023-01-21T02:09:29.718Z,11.00
2023-01-21T02:12:18.239Z,11.00
2023-01-21T02:15:06.338Z,10.90
2023-01-21T02:18:16.413Z,9.70
2023-01-21T02:21:29.992Z,10.80
2023-01-21T02:24:26.487Z,10.50
2023-01-21T02:27:30.143Z,10.90
2023-01-21T02:30:27.409Z,10.80
2023-01-21T02:33:26.445Z,9.20
2023-01-21T02:36:49.482Z,10.00
2023-01-21T02:39:49.360Z,10.60
2023-01-21T02:42:55.644Z,10.90
2023-01-21T02:45:49.829Z,10.80
2023-01-21T02:48:40.302Z,9.90
2023-01-21T02:51:27.755Z,9.60
2023-01-21T02:54:16.739Z,9.70
2023-01-21T02:57:05.595Z,10.20
2023-01-21T02:59:53.331Z,9.50
2023-01-21T03:03:13.512Z,10.20
2023-01-21T03:06:20.829Z,9.60
2023-01-21T03:09:14.572Z,10.20
2023-01-21T03:12:09.101Z,10.90
2023-01-21T03:15:23.406Z,9.80
2023-01-21T03:18:26.831Z,9.50
2023-01-21T03:21:17.043Z,10.10
2023-01-21T03:24:04.608Z,9.80
2023-01-21T03:26:52.609Z,9.30
2023-01-21T03:29:42.277Z,10.10
2023-01-21T03:32:29.978Z,8.50
2023-01-21T03:35:24.272Z,10.00
2023-01-21T03:38:50.551Z,9.90
2023-01-21T03:41:38.413Z,9.40
2023-01-21T03:44:26.295Z,10.00
2023-01-21T03:47:16.768Z,9.10
2023-01-21T03:50:08.904Z,9.40
2023-01-21T03:52:56.622Z,8.80
2023-01-21T03:55:44.090Z,9.80
2023-01-21T03:58:31.858Z,8.80
2023-01-21T04:01:19.492Z,9.80
2023-01-21T04:04:07.343Z,8.00
2023-01-21T04:06:54.977Z,9.40
2023-01-21T04:09:42.520Z,7.80
2023-01-21T04:12:29.922Z,8.20
2023-01-21T04:15:17.332Z,7.90
2023-01-21T04:18:04.865Z,8.20
2023-01-21T04:20:52.360Z,8.40
2023-01-21T04:23:40.553Z,8.50
2023-01-21T04:26:28.098Z,8.00
2023-01-21T04:29:15.530Z,9.00
2023-01-21T04:32:03.368Z,8.40
2023-01-21T04:34:50.887Z,8.30
2023-01-21T04:37:38.505Z,7.60
2023-01-21T04:40:26.111Z,8.20
2023-01-21T04:43:13.587Z,7.90
2023-01-21T04:46:01.222Z,7.00
2023-01-21T04:48:48.937Z,6.50
2023-01-21T04:51:36.644Z,8.70
2023-01-21T04:54:24.464Z,8.30
2023-01-21T04:57:12.662Z,7.50
2023-01-21T05:00:00.187Z,8.30
2023-01-21T05:02:47.825Z,11.60
2023-01-21T05:05:35.409Z,8.40
2023-01-21T05:08:22.907Z,7.30
2023-01-21T05:11:11.126Z,7.20
2023-01-21T05:13:58.706Z,7.70
2023-01-21T05:16:46.246Z,7.90
2023-01-21T05:19:33.697Z,7.00
2023-01-21T05:22:21.145Z,7.50
2023-01-21T05:25:08.822Z,6.40
2023-01-21T05:27:56.447Z,7.50
2023-01-21T05:30:44.717Z,6.90
2023-01-21T05:33:32.891Z,6.30
2023-01-21T05:36:20.519Z,6.60
2023-01-21T05:39:08.063Z,6.80
2023-01-21T05:41:55.550Z,6.70
2023-01-21T05:44:43.134Z,6.20
2023-01-21T05:47:30.566Z,7.20
2023-01-21T05:50:18.419Z,7.50
2023-01-21T05:53:06.355Z,7.90
2023-01-21T05:55:56.952Z,7.10
2023-01-21T05:58:44.487Z,7.00
2023-01-21T06:01:32.047Z,5.80
2023-01-21T06:04:19.596Z,6.10
2023-01-21T06:07:07.068Z,6.80
2023-01-21T06:09:54.567Z,6.00
2023-01-21T06:12:42.079Z,6.90
2023-01-21T06:15:30.085Z,5.50
2023-01-21T06:18:17.778Z,6.70
2023-01-21T06:21:05.526Z,5.50
2023-01-21T06:23:52.934Z,5.30
2023-01-21T06:26:40.433Z,6.30
2023-01-21T06:29:27.897Z,5.80
2023-01-21T06:32:15.490Z,5.50
2023-01-21T06:35:04.241Z,5.80
2023-01-21T06:37:51.771Z,6.20
2023-01-21T06:40:39.313Z,5.40
2023-01-21T06:43:26.821Z,7.00
2023-01-21T06:46:14.463Z,6.30
2023-01-21T06:49:02.440Z,6.30
2023-01-21T06:51:51.919Z,6.50
2023-01-21T06:54:39.419Z,4.90
2023-01-21T06:57:26.866Z,6.30
2023-01-21T07:00:14.767Z,6.10
2023-01-21T07:03:02.849Z,5.90
2023-01-21T07:05:50.404Z,5.70
2023-01-21T07:08:38.200Z,6.50
2023-01-21T07:11:25.845Z,7.60
2023-01-21T07:14:14.015Z,6.70
2023-01-21T07:17:01.556Z,6.10
2023-01-21T07:19:49.174Z,6.60
2023-01-21T07:22:36.982Z,6.40
2023-01-21T07:25:24.652Z,7.20
2023-01-21T07:28:12.598Z,5.30
2023-01-21T07:31:00.747Z,5.40
2023-01-21T07:33:48.252Z,9.20
2023-01-21T07:36:35.834Z,7.20
2023-01-21T07:39:23.423Z,7.80
2023-01-21T07:42:11.435Z,6.30
2023-01-21T07:44:59.703Z,7.30
2023-01-21T07:47:47.324Z,8.20
2023-01-21T07:50:35.397Z,7.00
2023-01-21T07:53:23.093Z,7.90
2023-01-21T07:56:10.767Z,7.60
2023-01-21T07:58:58.690Z,9.70
2023-01-21T10:05:53.488Z,12.90
2023-01-21T10:09:05.763Z,17.50
2023-01-21T10:12:14.888Z,10.00
2023-01-21T10:15:17.818Z,12.10
2023-01-21T10:18:11.311Z,11.20
2023-01-21T10:21:05.055Z,9.50
2023-01-21T10:23:54.864Z,10.00
2023-01-21T10:26:42.936Z,10.60
2023-01-21T10:29:30.319Z,10.50
2023-01-21T10:32:20.875Z,9.80
2023-01-21T10:35:16.392Z,9.30
2023-01-21T10:38:11.522Z,8.90
2023-01-21T10:41:18.529Z,8.10
2023-01-21T10:44:34.835Z,8.80
2023-01-21T10:47:27.989Z,7.90
2023-01-21T10:50:33.379Z,7.80
2023-01-21T10:53:26.304Z,7.40
2023-01-21T10:56:55.519Z,6.50
2023-01-21T10:59:42.946Z,7.60
2023-01-21T11:02:31.921Z,6.90
2023-01-21T11:05:19.568Z,7.90
2023-01-21T11:08:07.105Z,7.60
2023-01-21T11:10:57.894Z,7.70
2023-01-21T11:13:45.392Z,7.60
2023-01-21T11:16:49.040Z,8.40
2023-01-21T11:19:36.563Z,7.20
2023-01-21T11:22:25.197Z,9.50
2023-01-21T11:25:36.437Z,7.70
2023-01-21T11:28:26.413Z,8.50
2023-01-21T11:31:14.904Z,8.40
2023-01-21T11:34:19.240Z,8.30
2023-01-21T11:37:07.296Z,8.50
2023-01-21T11:39:59.562Z,9.30
2023-01-21T11:42:48.354Z,9.10
2023-01-21T11:45:36.890Z,9.00
2023-01-21T11:48:24.423Z,8.80
2023-01-21T11:51:11.948Z,8.20
2023-01-21T11:54:12.026Z,8.90
2023-01-21T11:57:02.653Z,8.60
2023-01-21T11:59:50.228Z,9.40
2023-01-21T12:02:43.774Z,7.70
2023-01-21T12:05:33.301Z,9.10
2023-01-21T12:08:25.445Z,8.10
2023-01-21T12:11:13.039Z,9.20
2023-01-21T12:14:25.107Z,8.00
2023-01-21T12:17:39.776Z,7.00
2023-01-21T12:20:35.613Z,7.40
2023-01-21T12:23:29.800Z,8.50
2023-01-21T12:26:34.689Z,7.50
2023-01-21T12:29:34.315Z,8.40
2023-01-21T12:32:42.857Z,8.00
2023-01-21T12:35:35.590Z,7.50
2023-01-21T12:38:30.345Z,8.40
2023-01-21T12:41:26.975Z,6.20
2023-01-21T12:44:14.367Z,8.70
2023-01-21T12:47:10.548Z,8.70
2023-01-21T12:50:01.182Z,8.40
2023-01-21T12:53:10.372Z,8.20
2023-01-21T12:56:28.779Z,7.80
2023-01-21T12:59:33.274Z,8.50
2023-01-21T13:02:24.768Z,7.90
2023-01-21T13:05:31.444Z,7.80
2023-01-21T13:08:28.500Z,7.50
2023-01-21T13:11:37.126Z,7.40
2023-01-21T13:14:43.207Z,8.10
2023-01-21T13:17:34.412Z,8.00
2023-01-21T13:20:22.319Z,6.70
2023-01-21T13:23:29.409Z,8.60
2023-01-21T13:26:45.132Z,7.20
2023-01-21T13:29:41.675Z,7.80
2023-01-21T13:32:35.213Z,8.00
2023-01-21T13:35:33.898Z,7.60
2023-01-21T13:38:31.776Z,7.90
2023-01-21T13:41:57.248Z,8.10
2023-01-21T13:44:48.109Z,7.40
2023-01-21T13:47:50.925Z,7.80
2023-01-21T13:51:12.646Z,8.40
2023-01-21T13:54:21.755Z,7.70
2023-01-21T13:57:35.704Z,8.30
2023-01-21T14:01:05.001Z,7.50
2023-01-21T14:03:52.643Z,7.10
2023-01-21T16:08:41.432Z,12.60
2023-01-21T16:12:07.497Z,16.40
2023-01-21T16:15:01.176Z,19.10
2023-01-21T16:18:07.843Z,23.40
2023-01-21T16:20:55.986Z,21.70
2023-01-21T16:23:43.784Z,17.60
2023-01-21T16:26:33.080Z,19.10
2023-01-21T16:29:20.723Z,16.00
2023-01-21T16:32:16.127Z,13.00
2023-01-21T16:35:03.898Z,10.70
2023-01-21T16:37:54.367Z,9.00
2023-01-21T16:40:41.806Z,9.50
2023-01-21T16:43:29.284Z,8.90
2023-01-21T16:46:40.354Z,10.80
2023-01-21T16:49:27.872Z,9.40
2023-01-21T16:52:19.995Z,11.40
2023-01-21T16:55:17.937Z,14.60
2023-01-21T16:58:17.120Z,15.40
2023-01-21T17:01:09.165Z,13.90
2023-01-21T17:03:56.608Z,13.40
2023-01-21T17:06:44.600Z,13.30
2023-01-21T17:09:35.376Z,13.70
2023-01-21T17:12:24.222Z,11.00
2023-01-21T17:15:41.386Z,10.70
2023-01-21T17:18:40.484Z,10.20
2023-01-21T17:21:31.991Z,11.50
2023-01-21T17:24:21.443Z,11.30
2023-01-21T17:27:10.366Z,10.90
2023-01-21T17:30:26.979Z,10.80
2023-01-21T17:33:27.562Z,12.50
2023-01-21T17:36:15.968Z,10.60
2023-01-21T17:39:04.192Z,11.30
2023-01-21T17:41:51.779Z,12.10
2023-01-21T17:44:39.654Z,11.80
2023-01-21T17:47:52.419Z,9.70
2023-01-21T17:50:46.278Z,10.10
2023-01-21T17:53:34.252Z,8.20
2023-01-21T17:56:41.766Z,8.60
2023-01-21T17:59:35.282Z,8.30
2023-01-21T18:02:24.785Z,9.10
2023-01-21T18:05:12.678Z,8.30
2023-01-21T18:08:00.227Z,8.00
2023-01-21T18:10:48.094Z,8.10
2023-01-21T18:13:35.867Z,8.20
2023-01-21T18:16:23.438Z,9.90
2023-01-21T18:19:33.962Z,9.30
2023-01-21T18:22:27.045Z,8.90
2023-01-21T18:25:15.584Z,8.60
2023-01-21T18:28:03.727Z,9.40
2023-01-21T18:30:55.273Z,10.50
2023-01-21T18:33:47.954Z,10.00
2023-01-21T18:36:35.559Z,8.10
2023-01-21T18:39:23.028Z,9.80
2023-01-21T18:42:14.361Z,9.60
2023-01-21T18:45:02.046Z,10.60
2023-01-21T18:47:49.895Z,13.30
2023-01-21T18:50:37.428Z,9.30
2023-01-21T18:53:25.730Z,8.70
2023-01-21T18:56:13.836Z,8.50
2023-01-21T18:59:01.374Z,10.40
2023-01-21T19:01:48.895Z,10.10
2023-01-21T19:04:36.706Z,10.10
2023-01-21T19:07:25.498Z,9.20
2023-01-21T19:10:17.803Z,10.00
2023-01-21T19:13:06.007Z,11.70
2023-01-21T19:15:53.844Z,11.50
2023-01-21T19:18:41.887Z,9.50
2023-01-21T19:21:29.894Z,10.40
2023-01-21T19:24:17.552Z,9.50
2023-01-21T19:27:06.590Z,11.30
2023-01-21T19:29:54.600Z,12.10
2023-01-21T19:32:49.401Z,9.80
2023-01-21T19:35:38.845Z,11.80
2023-01-21T19:38:26.829Z,11.20
2023-01-21T19:41:14.780Z,8.80
2023-01-21T19:44:02.513Z,9.80
2023-01-21T19:46:50.264Z,8.30
2023-01-21T19:49:38.943Z,8.40
2023-01-21T19:52:26.781Z,9.60
2023-01-21T19:55:22.441Z,10.10
2023-01-21T19:58:23.395Z,8.90
2023-01-21T22:03:02.559Z,10.30
2023-01-21T22:05:53.825Z,12.50
2023-01-21T22:08:42.120Z,14.60
2023-01-21T22:11:29.972Z,14.50
2023-01-21T22:14:18.051Z,15.20
2023-01-21T22:17:07.873Z,16.50
2023-01-21T22:19:55.549Z,14.60
2023-01-21T22:22:43.268Z,14.00
2023-01-21T22:25:30.843Z,13.40
2023-01-21T22:28:18.445Z,10.90
2023-01-21T22:31:07.641Z,9.70
2023-01-21T22:33:55.802Z,8.20
2023-01-21T22:36:47.142Z,7.10
2023-01-21T22:39:34.710Z,7.90
2023-01-21T22:42:22.289Z,7.40
2023-01-21T22:45:10.299Z,7.70
2023-01-21T22:47:57.798Z,8.40
2023-01-21T22:50:46.191Z,7.70
2023-01-21T22:53:33.878Z,7.40
2023-01-21T22:56:31.412Z,7.10
2023-01-21T22:59:23.076Z,8.60
2023-01-21T23:02:10.625Z,8.20
2023-01-21T23:04:58.135Z,6.80
2023-01-21T23:07:45.783Z,8.10
2023-01-21T23:10:33.353Z,7.30
2023-01-21T23:13:20.931Z,7.50
2023-01-21T23:16:09.747Z,7.00
2023-01-21T23:18:57.845Z,6.90
2023-01-21T23:21:45.308Z,7.50
2023-01-21T23:24:32.904Z,7.30
2023-01-21T23:27:20.536Z,7.30
2023-01-21T23:30:08.576Z,7.30
2023-01-21T23:32:56.158Z,6.60
2023-01-21T23:35:43.573Z,7.40
2023-01-21T23:38:31.154Z,6.90
2023-01-21T23:41:20.087Z,7.50
2023-01-21T23:44:09.866Z,6.50
2023-01-21T23:46:58.155Z,7.50
2023-01-21T23:49:45.576Z,5.90
2023-01-21T23:52:33.120Z,7.30
2023-01-21T23:55:20.717Z,6.30
2023-01-21T23:58:08.202Z,6.70
